createdAt,value
2019-06-20T00:02:58.180Z,101003.53
2019-06-20T00:07:59.568Z,100990.15
2019-06-20T00:13:01.116Z,101001.17
2019-06-20T00:18:02.582Z,100993.17
2019-06-20T00:23:04.034Z,100990.92
2019-06-20T00:28:05.528Z,100992.23
2019-06-20T00:33:07.019Z,100995.73
2019-06-20T00:38:08.543Z,101009.42
2019-06-20T00:43:17.569Z,100997.00
2019-06-20T00:48:13.592Z,100983.69
2019-06-20T00:53:14.866Z,100984.94
2019-06-20T00:58:16.272Z,100987.03
2019-06-20T01:03:17.551Z,100993.58
2019-06-20T01:08:18.964Z,100988.70
2019-06-20T01:13:33.261Z,100984.28
2019-06-20T01:18:23.796Z,100983.48
2019-06-20T01:23:25.295Z,100976.37
2019-06-20T01:28:26.898Z,100981.69
2019-06-20T01:33:28.414Z,100997.62
2019-06-20T01:38:29.789Z,100996.83
2019-06-20T01:43:31.278Z,100996.86
2019-06-20T01:48:32.787Z,101002.17
2019-06-20T01:53:34.188Z,100984.44
2019-06-20T01:58:35.746Z,100991.95
2019-06-20T02:03:37.133Z,100998.52
2019-06-20T02:08:38.645Z,101006.48
2019-06-20T02:13:40.173Z,101000.28
2019-06-20T02:18:41.706Z,101005.12
2019-06-20T02:23:43.218Z,101004.66
2019-06-20T02:28:45.023Z,101013.06
2019-06-20T02:33:46.485Z,101020.13
2019-06-20T02:38:47.896Z,101020.13
2019-06-20T02:43:49.317Z,101015.35
2019-06-20T02:48:50.755Z,101027.34
2019-06-20T02:53:52.197Z,101024.65
2019-06-20T02:58:53.489Z,101025.51
2019-06-20T03:03:54.973Z,101028.56
2019-06-20T03:08:56.484Z,101031.75
2019-06-20T03:13:57.884Z,101031.82
2019-06-20T03:18:59.401Z,101038.95
2019-06-20T03:24:00.874Z,101043.84
2019-06-20T03:29:02.401Z,101046.98
2019-06-20T03:34:03.695Z,101034.20
2019-06-20T03:39:05.712Z,101041.27
2019-06-20T03:44:06.987Z,101047.77
2019-06-20T03:49:08.507Z,101057.77
2019-06-20T03:54:09.974Z,101058.66
2019-06-20T03:59:11.463Z,101058.23
2019-06-20T04:04:13.032Z,101058.72
2019-06-20T04:09:14.387Z,101056.96
2019-06-20T04:14:15.910Z,101058.75
2019-06-20T04:19:17.415Z,101062.80
2019-06-20T04:24:18.920Z,101066.78
2019-06-20T04:29:20.333Z,101068.57
2019-06-20T04:34:21.878Z,101066.38
2019-06-20T04:39:25.454Z,101072.09
2019-06-20T04:44:26.868Z,101077.84
2019-06-20T04:49:28.350Z,101085.83
2019-06-20T04:54:29.826Z,101087.15
2019-06-20T04:59:31.424Z,101078.41
2019-06-20T05:04:33.010Z,101083.48
2019-06-20T05:09:34.639Z,101084.60
2019-06-20T05:14:36.056Z,101086.80
2019-06-20T05:19:37.690Z,101092.38
2019-06-20T05:24:39.228Z,101096.84
2019-06-20T05:29:40.750Z,101108.03
2019-06-20T05:34:42.311Z,101101.30
2019-06-20T05:39:43.743Z,101107.16
2019-06-20T05:44:45.308Z,101101.86
2019-06-20T05:49:46.789Z,101113.36
2019-06-20T05:54:48.383Z,101120.70
2019-06-20T05:59:49.763Z,101116.93
2019-06-20T06:04:51.273Z,101121.34
2019-06-20T06:09:52.802Z,101127.53
2019-06-20T06:14:54.347Z,101127.41
2019-06-20T06:19:55.819Z,101134.02
2019-06-20T06:24:57.421Z,101139.34
2019-06-20T06:29:59.021Z,101141.52
2019-06-20T06:35:00.585Z,101142.44
2019-06-20T06:40:02.746Z,101146.60
2019-06-20T06:45:04.843Z,101149.22
2019-06-20T06:50:06.260Z,101147.37
2019-06-20T06:55:07.900Z,101169.80
2019-06-20T07:00:09.711Z,101166.55
2019-06-20T07:05:11.114Z,101183.95
2019-06-20T07:10:12.635Z,101174.39
2019-06-20T07:15:14.180Z,101180.34
2019-06-20T07:20:15.642Z,101180.34
2019-06-20T07:25:17.237Z,101186.66
2019-06-20T07:30:19.196Z,101192.48
2019-06-20T07:35:20.844Z,101188.50
2019-06-20T07:40:22.362Z,101188.00
2019-06-20T07:45:27.330Z,101199.97
2019-06-20T07:50:29.143Z,101191.92
2019-06-20T07:55:30.761Z,101203.98
2019-06-20T08:00:33.302Z,101203.09
2019-06-20T08:05:34.855Z,101213.27
2019-06-20T08:10:36.431Z,101206.62
2019-06-20T08:15:37.967Z,101211.92
2019-06-20T08:20:39.520Z,101213.23
2019-06-20T08:25:41.061Z,101213.33
2019-06-20T08:30:45.357Z,101223.15
2019-06-20T08:35:46.870Z,101223.50
2019-06-20T08:40:48.383Z,101229.37
2019-06-20T08:45:49.878Z,101228.45
2019-06-20T08:50:51.487Z,101231.10
2019-06-20T08:55:52.990Z,101231.52
2019-06-20T09:00:55.933Z,101238.50
2019-06-20T09:05:58.378Z,101237.20
2019-06-20T09:10:59.973Z,101244.39
2019-06-20T09:16:03.018Z,101240.78
2019-06-20T09:21:04.823Z,101242.98
2019-06-20T09:26:06.455Z,101242.99
2019-06-20T09:31:08.225Z,101247.69
2019-06-20T09:36:10.027Z,101246.81
2019-06-20T09:41:11.539Z,101237.89
2019-06-20T09:46:13.198Z,101241.38
2019-06-20T09:51:14.748Z,101255.73
2019-06-20T09:56:16.298Z,101257.84
2019-06-20T10:01:18.063Z,101261.56
2019-06-20T10:06:19.624Z,101265.00
2019-06-20T10:11:21.102Z,101266.97
2019-06-20T10:16:22.617Z,101258.39
2019-06-20T10:21:24.188Z,101263.70
2019-06-20T10:26:26.049Z,101267.42
2019-06-20T10:31:27.566Z,101289.49
2019-06-20T10:36:29.224Z,101294.87
2019-06-20T10:41:30.848Z,101295.66
2019-06-20T10:46:32.433Z,101292.89
2019-06-20T10:51:34.983Z,101299.97
2019-06-20T10:56:36.519Z,101290.31
2019-06-20T11:01:38.108Z,101292.31
2019-06-20T11:06:41.342Z,101302.23
2019-06-20T11:11:43.112Z,101298.99
2019-06-20T11:16:45.211Z,101305.19
2019-06-20T11:21:50.784Z,101314.34
2019-06-20T11:26:52.406Z,101317.66
2019-06-20T11:31:54.076Z,101306.82
2019-06-20T11:36:55.517Z,101303.67
2019-06-20T11:41:57.006Z,101313.23
2019-06-20T11:46:58.718Z,101319.92
2019-06-20T11:52:00.189Z,101332.13
2019-06-20T11:57:01.740Z,101330.49
2019-06-20T12:02:03.278Z,101331.30
2019-06-20T12:07:04.780Z,101338.84
2019-06-20T12:12:06.344Z,101333.19
2019-06-20T12:17:07.854Z,101339.92
2019-06-20T12:22:09.382Z,101334.30
2019-06-20T12:27:10.895Z,101338.11
2019-06-20T12:32:12.471Z,101338.80
2019-06-20T12:37:14.008Z,101334.68
2019-06-20T12:42:15.521Z,101337.36
2019-06-20T12:47:16.995Z,101339.91
2019-06-20T12:52:18.434Z,101343.38
2019-06-20T12:57:19.974Z,101334.69
2019-06-20T13:02:21.483Z,101349.88
2019-06-20T13:07:23.055Z,101338.14
2019-06-20T13:12:24.675Z,101336.84
2019-06-20T13:17:26.196Z,101346.98
2019-06-20T13:22:27.595Z,101355.85
2019-06-20T13:27:29.151Z,101366.81
2019-06-20T13:32:30.654Z,101362.02
2019-06-20T13:37:34.315Z,101363.89
2019-06-20T13:42:35.837Z,101361.94
2019-06-20T13:47:37.362Z,101358.16
2019-06-20T13:52:42.811Z,101364.36
2019-06-20T13:57:43.000Z,101363.19
2019-06-20T14:02:46.892Z,101369.22
2019-06-20T14:07:51.850Z,101372.98
2019-06-20T14:12:52.002Z,101366.78
2019-06-20T14:17:53.855Z,101359.23
2019-06-20T14:22:56.658Z,101359.71
2019-06-20T14:27:58.350Z,101357.23
2019-06-20T14:33:01.609Z,101365.06
2019-06-20T14:38:05.808Z,101364.05
2019-06-20T14:43:07.338Z,101370.62
2019-06-20T14:48:08.932Z,101378.88
2019-06-20T14:53:10.484Z,101384.19
2019-06-20T14:58:11.786Z,101387.30
2019-06-20T15:03:13.366Z,101388.19
2019-06-20T15:08:14.939Z,101393.78
2019-06-20T15:13:16.461Z,101392.39
2019-06-20T15:18:17.964Z,101389.67
2019-06-20T15:23:19.374Z,101401.28
2019-06-20T15:28:20.863Z,101395.02
2019-06-20T15:33:23.532Z,101398.58
2019-06-20T15:38:25.001Z,101389.19
2019-06-20T15:43:26.506Z,101401.33
2019-06-20T15:48:29.058Z,101395.61
2019-06-20T15:53:30.548Z,101399.51
2019-06-20T15:58:32.123Z,101410.45
2019-06-20T16:03:33.608Z,101410.03
2019-06-20T16:08:35.036Z,101405.92
2019-06-20T16:13:36.522Z,101409.22
2019-06-20T16:18:38.261Z,101413.72
2019-06-20T16:23:39.787Z,101419.89
2019-06-20T16:28:41.306Z,101436.38
2019-06-20T16:33:42.794Z,101444.47
2019-06-20T16:38:44.411Z,101440.31
2019-06-20T16:43:45.975Z,101442.05
2019-06-20T16:48:47.597Z,101449.63
2019-06-20T16:53:49.128Z,101464.35
2019-06-20T16:58:50.647Z,101463.11
2019-06-20T17:03:52.149Z,101481.02
2019-06-20T17:08:53.710Z,101464.52
2019-06-20T17:13:55.103Z,101463.63
2019-06-20T17:18:56.678Z,101468.50
2019-06-20T17:23:58.245Z,101466.95
2019-06-20T17:28:59.509Z,101470.98
2019-06-20T17:34:01.009Z,101483.45
2019-06-20T17:39:04.469Z,101483.81
2019-06-20T17:44:05.858Z,101490.09
2019-06-20T17:49:07.136Z,101484.06
2019-06-20T17:54:08.486Z,101500.23
2019-06-20T17:59:09.919Z,101492.24
2019-06-20T18:04:14.038Z,101504.62
2019-06-20T18:09:14.901Z,101510.41
2019-06-20T18:14:16.440Z,101511.74
2019-06-20T18:19:17.797Z,101516.66
2019-06-20T18:24:21.317Z,101516.20
2019-06-20T18:29:22.763Z,101520.66
2019-06-20T18:34:30.290Z,101519.30
2019-06-20T18:39:31.010Z,101522.89
2019-06-20T18:44:32.546Z,101527.73
2019-06-20T18:49:34.061Z,101532.19
2019-06-20T18:54:35.778Z,101533.10
2019-06-20T18:59:37.475Z,101541.58
2019-06-20T19:04:48.004Z,101549.16
2019-06-20T19:09:42.464Z,101547.86
2019-06-20T19:14:44.032Z,101564.33
2019-06-20T19:19:45.593Z,101567.41
2019-06-20T19:24:47.325Z,101584.75
2019-06-20T19:29:49.772Z,101588.16
2019-06-20T19:35:01.334Z,101592.52
2019-06-20T19:39:55.124Z,101595.73
2019-06-20T19:44:56.530Z,101599.08
2019-06-20T19:49:58.019Z,101605.06
2019-06-20T19:54:59.546Z,101607.01
2019-06-20T20:00:01.095Z,101617.23
2019-06-20T20:05:18.426Z,101627.14
2019-06-20T20:10:10.038Z,101626.03
2019-06-20T20:15:11.584Z,101629.36
2019-06-20T20:20:13.120Z,101635.38
2019-06-20T20:25:14.699Z,101638.13
2019-06-20T20:30:16.265Z,101640.69
2019-06-20T20:35:31.535Z,101641.69
2019-06-20T20:40:21.226Z,101639.27
2019-06-20T20:45:22.736Z,101645.64
2019-06-20T20:50:24.295Z,101643.70
2019-06-20T20:55:25.905Z,101655.89
2019-06-20T21:00:33.250Z,101652.19
2019-06-20T21:05:50.437Z,101651.95
2019-06-20T21:10:38.254Z,101653.05
2019-06-20T21:15:39.669Z,101646.20
2019-06-20T21:20:41.209Z,101668.19
2019-06-20T21:25:42.706Z,101671.59
2019-06-20T21:30:44.245Z,101668.80
2019-06-20T21:35:45.648Z,101679.34
2019-06-20T21:40:47.201Z,101673.46
2019-06-20T21:45:48.702Z,101685.30
2019-06-20T21:50:50.291Z,101686.91
2019-06-20T21:55:51.901Z,101689.41
2019-06-20T22:00:54.513Z,101695.45
2019-06-20T22:05:56.098Z,101707.13
2019-06-20T22:10:57.496Z,101707.39
2019-06-20T22:15:59.042Z,101708.95
2019-06-20T22:21:00.681Z,101711.47
2019-06-20T22:26:02.298Z,101711.25
2019-06-20T22:31:03.829Z,101702.08
2019-06-20T22:36:05.372Z,101708.53
2019-06-20T22:41:06.764Z,101702.52
2019-06-20T22:46:08.183Z,101702.34
2019-06-20T22:51:09.819Z,101705.78
2019-06-20T22:56:11.329Z,101704.67
2019-06-20T23:01:12.617Z,101710.21
2019-06-20T23:06:14.125Z,101707.89
2019-06-20T23:11:15.607Z,101718.88
2019-06-20T23:16:17.146Z,101716.95
2019-06-20T23:21:18.671Z,101715.95
2019-06-20T23:26:20.197Z,101723.38
2019-06-20T23:31:21.733Z,101725.48
2019-06-20T23:36:23.368Z,101730.72
2019-06-20T23:41:24.884Z,101727.52
2019-06-20T23:46:26.281Z,101726.03
2019-06-20T23:51:27.807Z,101729.88
2019-06-20T23:56:29.323Z,101726.52
